sensor_id;sensor_type;location;lat;lon;timestamp;P1;durP1;ratioP1;P2;durP2;ratioP2
77012;SDS011;67260;53.130;17.982;2023-07-13T00:00:54;11.50;;;7.40;;
77012;SDS011;67260;53.130;17.982;2023-07-13T00:03:39;11.00;;;5.90;;
77012;SDS011;67260;53.130;17.982;2023-07-13T00:06:07;10.00;;;6.90;;
77012;SDS011;67260;53.130;17.982;2023-07-13T00:08:38;10.50;;;6.60;;
77012;SDS011;67260;53.130;17.982;2023-07-13T00:11:08;9.10;;;6.40;;
77012;SDS011;67260;53.130;17.982;2023-07-13T00:13:39;9.10;;;6.20;;
77012;SDS011;67260;53.130;17.982;2023-07-13T00:16:06;8.80;;;6.30;;
77012;SDS011;67260;53.130;17.982;2023-07-13T00:18:34;11.30;;;6.70;;
77012;SDS011;67260;53.130;17.982;2023-07-13T00:20:59;10.60;;;6.40;;
77012;SDS011;67260;53.130;17.982;2023-07-13T00:23:34;9.70;;;6.00;;
77012;SDS011;67260;53.130;17.982;2023-07-13T00:26:02;8.90;;;6.00;;
77012;SDS011;67260;53.130;17.982;2023-07-13T00:28:33;10.20;;;5.70;;
77012;SDS011;67260;53.130;17.982;2023-07-13T00:31:00;8.80;;;5.90;;
77012;SDS011;67260;53.130;17.982;2023-07-13T00:33:28;9.70;;;5.80;;
77012;SDS011;67260;53.130;17.982;2023-07-13T00:35:57;8.40;;;5.70;;
77012;SDS011;67260;53.130;17.982;2023-07-13T00:38:33;9.10;;;5.80;;
77012;SDS011;67260;53.130;17.982;2023-07-13T00:41:00;9.30;;;5.90;;
77012;SDS011;67260;53.130;17.982;2023-07-13T00:43:32;8.90;;;6.10;;
77012;SDS011;67260;53.130;17.982;2023-07-13T00:46:37;7.70;;;5.50;;
77012;SDS011;67260;53.130;17.982;2023-07-13T00:49:06;9.20;;;6.20;;
77012;SDS011;67260;53.130;17.982;2023-07-13T00:51:52;9.00;;;6.10;;
77012;SDS011;67260;53.130;17.982;2023-07-13T00:54:25;9.00;;;6.20;;
77012;SDS011;67260;53.130;17.982;2023-07-13T00:57:03;7.90;;;6.20;;
77012;SDS011;67260;53.130;17.982;2023-07-13T00:59:33;10.50;;;5.90;;
77012;SDS011;67260;53.130;17.982;2023-07-13T01:02:02;8.30;;;5.90;;
77012;SDS011;67260;53.130;17.982;2023-07-13T01:04:29;10.20;;;6.10;;
77012;SDS011;67260;53.130;17.982;2023-07-13T01:06:57;9.80;;;6.10;;
77012;SDS011;67260;53.130;17.982;2023-07-13T01:09:26;10.50;;;6.20;;
77012;SDS011;67260;53.130;17.982;2023-07-13T01:11:53;10.00;;;6.00;;
77012;SDS011;67260;53.130;17.982;2023-07-13T01:14:19;10.00;;;5.50;;
77012;SDS011;67260;53.130;17.982;2023-07-13T01:16:46;8.50;;;6.00;;
77012;SDS011;67260;53.130;17.982;2023-07-13T01:19:35;7.00;;;5.50;;
77012;SDS011;67260;53.130;17.982;2023-07-13T01:22:14;10.10;;;5.30;;
77012;SDS011;67260;53.130;17.982;2023-07-13T01:24:43;7.90;;;5.30;;
77012;SDS011;67260;53.130;17.982;2023-07-13T01:27:13;10.20;;;5.50;;
77012;SDS011;67260;53.130;17.982;2023-07-13T01:29:41;8.00;;;5.20;;
77012;SDS011;67260;53.130;17.982;2023-07-13T01:32:16;7.80;;;5.10;;
77012;SDS011;67260;53.130;17.982;2023-07-13T01:34:55;9.60;;;5.50;;
77012;SDS011;67260;53.130;17.982;2023-07-13T01:37:21;14.60;;;5.40;;
77012;SDS011;67260;53.130;17.982;2023-07-13T01:39:53;7.70;;;5.20;;
77012;SDS011;67260;53.130;17.982;2023-07-13T01:42:19;10.50;;;5.80;;
77012;SDS011;67260;53.130;17.982;2023-07-13T01:44:47;10.70;;;6.20;;
77012;SDS011;67260;53.130;17.982;2023-07-13T01:47:13;10.20;;;5.20;;
77012;SDS011;67260;53.130;17.982;2023-07-13T01:49:39;9.20;;;5.50;;
77012;SDS011;67260;53.130;17.982;2023-07-13T01:52:06;10.40;;;5.60;;
77012;SDS011;67260;53.130;17.982;2023-07-13T01:54:33;12.50;;;5.60;;
77012;SDS011;67260;53.130;17.982;2023-07-13T01:56:59;8.60;;;5.50;;
77012;SDS011;67260;53.130;17.982;2023-07-13T01:59:26;10.00;;;6.00;;
77012;SDS011;67260;53.130;17.982;2023-07-13T02:01:51;9.80;;;5.80;;
77012;SDS011;67260;53.130;17.982;2023-07-13T02:04:17;10.40;;;6.00;;
77012;SDS011;67260;53.130;17.982;2023-07-13T02:06:43;8.30;;;6.10;;
77012;SDS011;67260;53.130;17.982;2023-07-13T02:09:09;13.10;;;6.30;;
77012;SDS011;67260;53.130;17.982;2023-07-13T02:11:36;8.90;;;6.10;;
77012;SDS011;67260;53.130;17.982;2023-07-13T02:14:02;8.20;;;5.90;;
77012;SDS011;67260;53.130;17.982;2023-07-13T02:16:29;8.10;;;6.10;;
77012;SDS011;67260;53.130;17.982;2023-07-13T02:18:55;11.50;;;6.50;;
77012;SDS011;67260;53.130;17.982;2023-07-13T02:23:48;7.90;;;5.50;;
77012;SDS011;67260;53.130;17.982;2023-07-13T02:26:16;9.30;;;5.80;;
77012;SDS011;67260;53.130;17.982;2023-07-13T02:28:42;8.80;;;6.00;;
77012;SDS011;67260;53.130;17.982;2023-07-13T02:31:11;7.80;;;5.70;;
77012;SDS011;67260;53.130;17.982;2023-07-13T02:33:41;8.90;;;6.10;;
77012;SDS011;67260;53.130;17.982;2023-07-13T02:36:07;9.80;;;5.80;;
77012;SDS011;67260;53.130;17.982;2023-07-13T02:38:35;11.10;;;6.90;;
77012;SDS011;67260;53.130;17.982;2023-07-13T02:41:02;9.20;;;6.30;;
77012;SDS011;67260;53.130;17.982;2023-07-13T02:43:30;10.60;;;6.40;;
77012;SDS011;67260;53.130;17.982;2023-07-13T02:45:56;8.60;;;6.00;;
77012;SDS011;67260;53.130;17.982;2023-07-13T02:48:22;11.50;;;6.20;;
77012;SDS011;67260;53.130;17.982;2023-07-13T02:50:48;10.70;;;6.30;;
77012;SDS011;67260;53.130;17.982;2023-07-13T02:53:14;8.60;;;6.10;;
77012;SDS011;67260;53.130;17.982;2023-07-13T02:55:40;10.00;;;6.60;;
77012;SDS011;67260;53.130;17.982;2023-07-13T02:58:06;10.90;;;6.80;;
77012;SDS011;67260;53.130;17.982;2023-07-13T03:00:33;10.30;;;7.30;;
77012;SDS011;67260;53.130;17.982;2023-07-13T03:03:00;11.50;;;6.80;;
77012;SDS011;67260;53.130;17.982;2023-07-13T03:05:26;10.40;;;7.20;;
77012;SDS011;67260;53.130;17.982;2023-07-13T03:07:52;11.60;;;6.50;;
77012;SDS011;67260;53.130;17.982;2023-07-13T03:10:19;10.10;;;6.50;;
77012;SDS011;67260;53.130;17.982;2023-07-13T03:12:48;10.00;;;7.50;;
77012;SDS011;67260;53.130;17.982;2023-07-13T03:15:20;9.30;;;6.90;;
77012;SDS011;67260;53.130;17.982;2023-07-13T03:17:47;10.30;;;7.40;;
77012;SDS011;67260;53.130;17.982;2023-07-13T03:20:14;8.70;;;6.80;;
77012;SDS011;67260;53.130;17.982;2023-07-13T03:22:40;11.40;;;7.40;;
77012;SDS011;67260;53.130;17.982;2023-07-13T03:25:08;9.10;;;6.90;;
77012;SDS011;67260;53.130;17.982;2023-07-13T03:27:35;10.90;;;6.70;;
77012;SDS011;67260;53.130;17.982;2023-07-13T03:30:02;10.50;;;6.60;;
77012;SDS011;67260;53.130;17.982;2023-07-13T03:32:28;10.10;;;6.80;;
77012;SDS011;67260;53.130;17.982;2023-07-13T03:34:54;9.00;;;6.50;;
77012;SDS011;67260;53.130;17.982;2023-07-13T03:37:21;14.50;;;7.60;;
77012;SDS011;67260;53.130;17.982;2023-07-13T03:39:47;11.40;;;6.90;;
77012;SDS011;67260;53.130;17.982;2023-07-13T03:42:14;12.10;;;7.40;;
77012;SDS011;67260;53.130;17.982;2023-07-13T03:44:41;10.40;;;6.70;;
77012;SDS011;67260;53.130;17.982;2023-07-13T03:47:11;10.30;;;7.00;;
77012;SDS011;67260;53.130;17.982;2023-07-13T03:49:38;8.00;;;6.30;;
77012;SDS011;67260;53.130;17.982;2023-07-13T03:52:04;11.20;;;6.80;;
77012;SDS011;67260;53.130;17.982;2023-07-13T03:54:30;11.90;;;7.10;;
77012;SDS011;67260;53.130;17.982;2023-07-13T03:57:00;11.00;;;6.40;;
77012;SDS011;67260;53.130;17.982;2023-07-13T03:59:30;11.00;;;6.90;;
77012;SDS011;67260;53.130;17.982;2023-07-13T04:04:23;10.70;;;7.30;;
77012;SDS011;67260;53.130;17.982;2023-07-13T04:06:49;10.80;;;7.50;;
77012;SDS011;67260;53.130;17.982;2023-07-13T04:09:15;13.10;;;6.80;;
77012;SDS011;67260;53.130;17.982;2023-07-13T04:11:41;9.10;;;6.50;;
77012;SDS011;67260;53.130;17.982;2023-07-13T04:14:07;9.60;;;7.30;;
77012;SDS011;67260;53.130;17.982;2023-07-13T04:16:34;11.20;;;7.20;;
77012;SDS011;67260;53.130;17.982;2023-07-13T04:19:00;12.70;;;7.50;;
77012;SDS011;67260;53.130;17.982;2023-07-13T04:23:54;12.20;;;8.00;;
77012;SDS011;67260;53.130;17.982;2023-07-13T04:26:20;12.60;;;7.40;;
77012;SDS011;67260;53.130;17.982;2023-07-13T04:28:47;9.20;;;6.90;;
77012;SDS011;67260;53.130;17.982;2023-07-13T04:31:15;13.80;;;7.60;;
77012;SDS011;67260;53.130;17.982;2023-07-13T04:33:42;10.00;;;7.60;;
77012;SDS011;67260;53.130;17.982;2023-07-13T04:36:08;10.70;;;6.80;;
77012;SDS011;67260;53.130;17.982;2023-07-13T04:38:35;14.90;;;6.90;;
77012;SDS011;67260;53.130;17.982;2023-07-13T04:41:02;11.70;;;7.20;;
77012;SDS011;67260;53.130;17.982;2023-07-13T04:43:31;12.40;;;8.10;;
77012;SDS011;67260;53.130;17.982;2023-07-13T04:46:02;11.60;;;7.10;;
77012;SDS011;67260;53.130;17.982;2023-07-13T04:48:31;12.20;;;6.80;;
77012;SDS011;67260;53.130;17.982;2023-07-13T04:50:57;11.10;;;6.60;;
77012;SDS011;67260;53.130;17.982;2023-07-13T04:53:24;7.80;;;5.60;;
77012;SDS011;67260;53.130;17.982;2023-07-13T04:55:51;9.60;;;6.00;;
77012;SDS011;67260;53.130;17.982;2023-07-13T04:58:17;10.30;;;6.10;;
77012;SDS011;67260;53.130;17.982;2023-07-13T05:03:09;8.90;;;5.70;;
77012;SDS011;67260;53.130;17.982;2023-07-13T05:08:01;9.50;;;5.60;;
77012;SDS011;67260;53.130;17.982;2023-07-13T05:10:27;8.50;;;6.00;;
77012;SDS011;67260;53.130;17.982;2023-07-13T05:12:54;10.90;;;5.80;;
77012;SDS011;67260;53.130;17.982;2023-07-13T05:15:23;9.80;;;5.40;;
77012;SDS011;67260;53.130;17.982;2023-07-13T05:17:49;8.00;;;5.10;;
77012;SDS011;67260;53.130;17.982;2023-07-13T05:20:16;8.90;;;5.50;;
77012;SDS011;67260;53.130;17.982;2023-07-13T05:22:43;7.40;;;5.80;;
77012;SDS011;67260;53.130;17.982;2023-07-13T05:25:10;10.00;;;6.10;;
77012;SDS011;67260;53.130;17.982;2023-07-13T05:30:02;10.90;;;5.60;;
77012;SDS011;67260;53.130;17.982;2023-07-13T05:32:29;9.30;;;5.00;;
77012;SDS011;67260;53.130;17.982;2023-07-13T05:34:55;11.00;;;6.10;;
77012;SDS011;67260;53.130;17.982;2023-07-13T05:37:21;6.90;;;4.50;;
77012;SDS011;67260;53.130;17.982;2023-07-13T05:39:47;6.80;;;4.20;;
77012;SDS011;67260;53.130;17.982;2023-07-13T05:42:13;7.40;;;4.10;;
77012;SDS011;67260;53.130;17.982;2023-07-13T05:44:39;7.80;;;3.90;;
77012;SDS011;67260;53.130;17.982;2023-07-13T05:47:06;8.30;;;3.80;;
77012;SDS011;67260;53.130;17.982;2023-07-13T05:49:32;11.00;;;5.00;;
77012;SDS011;67260;53.130;17.982;2023-07-13T05:51:58;7.70;;;4.10;;
77012;SDS011;67260;53.130;17.982;2023-07-13T05:54:24;8.00;;;3.60;;
77012;SDS011;67260;53.130;17.982;2023-07-13T05:56:50;7.40;;;3.60;;
77012;SDS011;67260;53.130;17.982;2023-07-13T05:59:17;8.30;;;3.40;;
77012;SDS011;67260;53.130;17.982;2023-07-13T06:01:43;7.30;;;3.40;;
77012;SDS011;67260;53.130;17.982;2023-07-13T06:04:10;7.50;;;3.40;;
77012;SDS011;67260;53.130;17.982;2023-07-13T06:06:36;7.00;;;3.20;;
77012;SDS011;67260;53.130;17.982;2023-07-13T06:09:02;7.10;;;3.10;;
77012;SDS011;67260;53.130;17.982;2023-07-13T06:11:28;7.50;;;3.00;;
77012;SDS011;67260;53.130;17.982;2023-07-13T06:13:55;8.80;;;3.30;;
77012;SDS011;67260;53.130;17.982;2023-07-13T06:16:22;6.40;;;3.10;;
77012;SDS011;67260;53.130;17.982;2023-07-13T06:18:49;5.50;;;2.60;;
77012;SDS011;67260;53.130;17.982;2023-07-13T06:21:16;7.80;;;2.70;;
77012;SDS011;67260;53.130;17.982;2023-07-13T06:23:44;6.90;;;2.70;;
77012;SDS011;67260;53.130;17.982;2023-07-13T06:26:16;7.30;;;2.70;;
77012;SDS011;67260;53.130;17.982;2023-07-13T06:28:44;6.60;;;3.00;;
77012;SDS011;67260;53.130;17.982;2023-07-13T06:31:11;6.80;;;2.60;;
77012;SDS011;67260;53.130;17.982;2023-07-13T06:33:39;14.20;;;2.60;;
77012;SDS011;67260;53.130;17.982;2023-07-13T06:36:05;4.80;;;2.20;;
77012;SDS011;67260;53.130;17.982;2023-07-13T06:38:33;5.30;;;2.10;;
77012;SDS011;67260;53.130;17.982;2023-07-13T06:41:00;7.90;;;2.30;;
77012;SDS011;67260;53.130;17.982;2023-07-13T06:43:26;5.60;;;2.20;;
77012;SDS011;67260;53.130;17.982;2023-07-13T06:45:54;4.90;;;2.20;;
77012;SDS011;67260;53.130;17.982;2023-07-13T06:48:21;6.20;;;2.10;;
77012;SDS011;67260;53.130;17.982;2023-07-13T06:50:48;5.10;;;2.60;;
77012;SDS011;67260;53.130;17.982;2023-07-13T06:53:19;8.80;;;3.50;;
77012;SDS011;67260;53.130;17.982;2023-07-13T06:55:46;4.80;;;2.30;;
77012;SDS011;67260;53.130;17.982;2023-07-13T06:58:14;5.40;;;2.30;;
77012;SDS011;67260;53.130;17.982;2023-07-13T07:00:42;5.30;;;2.30;;
77012;SDS011;67260;53.130;17.982;2023-07-13T07:03:10;5.30;;;2.40;;
77012;SDS011;67260;53.130;17.982;2023-07-13T07:05:37;5.10;;;2.20;;
77012;SDS011;67260;53.130;17.982;2023-07-13T07:08:06;5.10;;;1.90;;
77012;SDS011;67260;53.130;17.982;2023-07-13T07:10:36;6.40;;;2.00;;
77012;SDS011;67260;53.130;17.982;2023-07-13T07:13:03;4.80;;;1.90;;
77012;SDS011;67260;53.130;17.982;2023-07-13T07:15:29;6.00;;;2.90;;
77012;SDS011;67260;53.130;17.982;2023-07-13T07:17:57;5.60;;;2.40;;
77012;SDS011;67260;53.130;17.982;2023-07-13T07:20:23;6.60;;;2.70;;
77012;SDS011;67260;53.130;17.982;2023-07-13T07:22:49;8.40;;;2.50;;
77012;SDS011;67260;53.130;17.982;2023-07-13T07:25:15;8.30;;;2.60;;
77012;SDS011;67260;53.130;17.982;2023-07-13T07:27:41;7.90;;;2.60;;
77012;SDS011;67260;53.130;17.982;2023-07-13T07:30:08;6.20;;;2.30;;
77012;SDS011;67260;53.130;17.982;2023-07-13T07:32:34;5.80;;;2.50;;
77012;SDS011;67260;53.130;17.982;2023-07-13T07:35:00;10.30;;;2.40;;
77012;SDS011;67260;53.130;17.982;2023-07-13T07:37:26;5.80;;;2.20;;
77012;SDS011;67260;53.130;17.982;2023-07-13T07:39:52;5.40;;;2.20;;
77012;SDS011;67260;53.130;17.982;2023-07-13T07:42:18;6.50;;;1.80;;
77012;SDS011;67260;53.130;17.982;2023-07-13T07:44:46;5.30;;;2.00;;
77012;SDS011;67260;53.130;17.982;2023-07-13T07:47:14;7.10;;;2.00;;
77012;SDS011;67260;53.130;17.982;2023-07-13T07:49:40;4.80;;;1.90;;
77012;SDS011;67260;53.130;17.982;2023-07-13T07:52:07;5.70;;;2.00;;
77012;SDS011;67260;53.130;17.982;2023-07-13T07:54:33;5.40;;;1.90;;
77012;SDS011;67260;53.130;17.982;2023-07-13T07:56:59;4.00;;;1.60;;
77012;SDS011;67260;53.130;17.982;2023-07-13T07:59:25;5.20;;;1.60;;
77012;SDS011;67260;53.130;17.982;2023-07-13T08:01:51;5.50;;;1.80;;
77012;SDS011;67260;53.130;17.982;2023-07-13T08:04:17;5.30;;;1.90;;
77012;SDS011;67260;53.130;17.982;2023-07-13T08:06:44;4.80;;;1.80;;
77012;SDS011;67260;53.130;17.982;2023-07-13T08:09:10;5.20;;;1.80;;
77012;SDS011;67260;53.130;17.982;2023-07-13T08:11:36;5.80;;;1.90;;
77012;SDS011;67260;53.130;17.982;2023-07-13T08:14:02;6.40;;;1.90;;
77012;SDS011;67260;53.130;17.982;2023-07-13T08:16:29;4.80;;;1.70;;
77012;SDS011;67260;53.130;17.982;2023-07-13T08:18:55;4.20;;;1.40;;
77012;SDS011;67260;53.130;17.982;2023-07-13T08:21:21;4.40;;;1.50;;
77012;SDS011;67260;53.130;17.982;2023-07-13T08:23:47;5.20;;;1.70;;
77012;SDS011;67260;53.130;17.982;2023-07-13T08:26:13;7.10;;;1.60;;
77012;SDS011;67260;53.130;17.982;2023-07-13T08:28:40;4.60;;;1.60;;
77012;SDS011;67260;53.130;17.982;2023-07-13T08:31:06;14.70;;;2.10;;
77012;SDS011;67260;53.130;17.982;2023-07-13T08:33:34;7.40;;;1.80;;
77012;SDS011;67260;53.130;17.982;2023-07-13T08:36:02;4.20;;;1.60;;
77012;SDS011;67260;53.130;17.982;2023-07-13T08:38:28;4.00;;;1.60;;
77012;SDS011;67260;53.130;17.982;2023-07-13T08:40:55;4.50;;;1.50;;
77012;SDS011;67260;53.130;17.982;2023-07-13T08:43:25;5.10;;;1.50;;
77012;SDS011;67260;53.130;17.982;2023-07-13T08:49:06;6.40;;;1.40;;
77012;SDS011;67260;53.130;17.982;2023-07-13T08:51:47;4.10;;;1.50;;
77012;SDS011;67260;53.130;17.982;2023-07-13T08:57:02;5.10;;;1.70;;
77012;SDS011;67260;53.130;17.982;2023-07-13T08:59:39;8.30;;;1.90;;
77012;SDS011;67260;53.130;17.982;2023-07-13T09:02:14;7.20;;;1.90;;
77012;SDS011;67260;53.130;17.982;2023-07-13T09:05:04;5.40;;;1.80;;
77012;SDS011;67260;53.130;17.982;2023-07-13T09:13:33;6.10;;;1.70;;
77012;SDS011;67260;53.130;17.982;2023-07-13T09:16:09;9.40;;;2.00;;
77012;SDS011;67260;53.130;17.982;2023-07-13T09:18:39;6.90;;;2.00;;
77012;SDS011;67260;53.130;17.982;2023-07-13T09:21:15;5.30;;;1.80;;
77012;SDS011;67260;53.130;17.982;2023-07-13T09:23:50;4.50;;;1.90;;
77012;SDS011;67260;53.130;17.982;2023-07-13T09:26:20;5.20;;;1.70;;
77012;SDS011;67260;53.130;17.982;2023-07-13T09:28:51;4.90;;;1.90;;
77012;SDS011;67260;53.130;17.982;2023-07-13T09:31:28;4.70;;;1.80;;
77012;SDS011;67260;53.130;17.982;2023-07-13T09:33:59;6.10;;;1.80;;
77012;SDS011;67260;53.130;17.982;2023-07-13T09:36:30;7.30;;;1.70;;
77012;SDS011;67260;53.130;17.982;2023-07-13T09:39:14;5.90;;;1.60;;
77012;SDS011;67260;53.130;17.982;2023-07-13T09:44:29;5.60;;;1.80;;
77012;SDS011;67260;53.130;17.982;2023-07-13T09:46:59;5.10;;;1.70;;
77012;SDS011;67260;53.130;17.982;2023-07-13T09:49:26;4.80;;;1.60;;
77012;SDS011;67260;53.130;17.982;2023-07-13T09:52:04;6.50;;;1.50;;
77012;SDS011;67260;53.130;17.982;2023-07-13T09:54:37;6.80;;;1.80;;
77012;SDS011;67260;53.130;17.982;2023-07-13T09:57:12;6.90;;;1.50;;
77012;SDS011;67260;53.130;17.982;2023-07-13T09:59:45;5.70;;;1.50;;
77012;SDS011;67260;53.130;17.982;2023-07-13T10:02:31;5.60;;;1.60;;
77012;SDS011;67260;53.130;17.982;2023-07-13T10:05:03;4.80;;;1.50;;
77012;SDS011;67260;53.130;17.982;2023-07-13T10:07:32;3.80;;;1.40;;
77012;SDS011;67260;53.130;17.982;2023-07-13T10:10:13;5.70;;;1.90;;
77012;SDS011;67260;53.130;17.982;2023-07-13T10:12:49;7.10;;;1.70;;
77012;SDS011;67260;53.130;17.982;2023-07-13T10:15:23;5.30;;;1.90;;
77012;SDS011;67260;53.130;17.982;2023-07-13T10:17:53;4.60;;;1.70;;
77012;SDS011;67260;53.130;17.982;2023-07-13T10:20:29;5.30;;;1.40;;
77012;SDS011;67260;53.130;17.982;2023-07-13T10:23:01;5.00;;;1.30;;
77012;SDS011;67260;53.130;17.982;2023-07-13T10:25:48;6.90;;;1.50;;
77012;SDS011;67260;53.130;17.982;2023-07-13T10:30:49;4.80;;;1.50;;
77012;SDS011;67260;53.130;17.982;2023-07-13T10:33:20;5.20;;;1.50;;
77012;SDS011;67260;53.130;17.982;2023-07-13T10:35:46;6.20;;;1.60;;
77012;SDS011;67260;53.130;17.982;2023-07-13T10:38:30;3.30;;;1.30;;
77012;SDS011;67260;53.130;17.982;2023-07-13T10:41:33;5.40;;;1.40;;
77012;SDS011;67260;53.130;17.982;2023-07-13T10:44:07;4.00;;;1.30;;
77012;SDS011;67260;53.130;17.982;2023-07-13T10:49:11;9.30;;;1.90;;
77012;SDS011;67260;53.130;17.982;2023-07-13T10:51:43;4.50;;;1.50;;
77012;SDS011;67260;53.130;17.982;2023-07-13T10:54:16;5.50;;;1.20;;
77012;SDS011;67260;53.130;17.982;2023-07-13T10:57:07;4.50;;;1.30;;
77012;SDS011;67260;53.130;17.982;2023-07-13T11:02:36;8.70;;;1.70;;
77012;SDS011;67260;53.130;17.982;2023-07-13T11:05:25;15.10;;;2.00;;
77012;SDS011;67260;53.130;17.982;2023-07-13T11:07:55;5.00;;;1.40;;
77012;SDS011;67260;53.130;17.982;2023-07-13T11:10:49;3.90;;;1.50;;
77012;SDS011;67260;53.130;17.982;2023-07-13T11:13:37;6.20;;;1.80;;
77012;SDS011;67260;53.130;17.982;2023-07-13T11:21:28;3.90;;;1.50;;
77012;SDS011;67260;53.130;17.982;2023-07-13T11:24:15;6.60;;;1.60;;
77012;SDS011;67260;53.130;17.982;2023-07-13T11:26:43;3.60;;;1.20;;
77012;SDS011;67260;53.130;17.982;2023-07-13T11:31:43;4.50;;;1.50;;
77012;SDS011;67260;53.130;17.982;2023-07-13T11:34:21;8.70;;;1.70;;
77012;SDS011;67260;53.130;17.982;2023-07-13T11:36:53;6.40;;;1.60;;
77012;SDS011;67260;53.130;17.982;2023-07-13T11:39:30;3.80;;;1.60;;
77012;SDS011;67260;53.130;17.982;2023-07-13T11:42:00;4.60;;;1.40;;
77012;SDS011;67260;53.130;17.982;2023-07-13T11:44:30;14.90;;;2.40;;
77012;SDS011;67260;53.130;17.982;2023-07-13T11:46:59;8.10;;;1.90;;
77012;SDS011;67260;53.130;17.982;2023-07-13T11:49:29;7.70;;;1.80;;
77012;SDS011;67260;53.130;17.982;2023-07-13T11:51:57;4.70;;;1.90;;
77012;SDS011;67260;53.130;17.982;2023-07-13T11:54:29;5.20;;;1.70;;
77012;SDS011;67260;53.130;17.982;2023-07-13T11:57:07;5.20;;;1.80;;
77012;SDS011;67260;53.130;17.982;2023-07-13T11:59:52;6.40;;;1.90;;
77012;SDS011;67260;53.130;17.982;2023-07-13T12:02:31;5.50;;;2.10;;
77012;SDS011;67260;53.130;17.982;2023-07-13T12:05:00;5.70;;;1.80;;
77012;SDS011;67260;53.130;17.982;2023-07-13T12:07:29;5.00;;;1.80;;
77012;SDS011;67260;53.130;17.982;2023-07-13T12:12:52;5.20;;;1.90;;
77012;SDS011;67260;53.130;17.982;2023-07-13T12:15:21;6.20;;;2.00;;
77012;SDS011;67260;53.130;17.982;2023-07-13T12:17:55;4.80;;;2.00;;
77012;SDS011;67260;53.130;17.982;2023-07-13T12:20:34;4.40;;;1.60;;
77012;SDS011;67260;53.130;17.982;2023-07-13T12:23:24;5.40;;;1.70;;
77012;SDS011;67260;53.130;17.982;2023-07-13T12:25:54;6.10;;;1.50;;
77012;SDS011;67260;53.130;17.982;2023-07-13T12:28:35;3.30;;;1.60;;
77012;SDS011;67260;53.130;17.982;2023-07-13T12:31:04;3.80;;;1.70;;
77012;SDS011;67260;53.130;17.982;2023-07-13T12:33:32;5.50;;;1.70;;
77012;SDS011;67260;53.130;17.982;2023-07-13T12:36:03;9.90;;;2.00;;
77012;SDS011;67260;53.130;17.982;2023-07-13T12:38:32;7.50;;;1.90;;
77012;SDS011;67260;53.130;17.982;2023-07-13T12:40:58;6.30;;;1.60;;
77012;SDS011;67260;53.130;17.982;2023-07-13T12:43:28;7.70;;;2.00;;
77012;SDS011;67260;53.130;17.982;2023-07-13T12:48:41;13.10;;;2.20;;
77012;SDS011;67260;53.130;17.982;2023-07-13T12:51:10;4.70;;;1.70;;
77012;SDS011;67260;53.130;17.982;2023-07-13T12:53:40;7.20;;;2.10;;
77012;SDS011;67260;53.130;17.982;2023-07-13T12:56:08;3.60;;;1.70;;
77012;SDS011;67260;53.130;17.982;2023-07-13T12:58:45;5.40;;;1.90;;
77012;SDS011;67260;53.130;17.982;2023-07-13T13:01:14;6.70;;;2.00;;
77012;SDS011;67260;53.130;17.982;2023-07-13T13:03:47;3.90;;;1.90;;
77012;SDS011;67260;53.130;17.982;2023-07-13T13:08:47;5.10;;;1.90;;
77012;SDS011;67260;53.130;17.982;2023-07-13T13:11:19;5.40;;;1.70;;
77012;SDS011;67260;53.130;17.982;2023-07-13T13:13:46;7.70;;;1.70;;
77012;SDS011;67260;53.130;17.982;2023-07-13T13:16:30;5.30;;;2.30;;
77012;SDS011;67260;53.130;17.982;2023-07-13T13:19:05;4.60;;;1.70;;
77012;SDS011;67260;53.130;17.982;2023-07-13T13:21:35;5.40;;;1.90;;
77012;SDS011;67260;53.130;17.982;2023-07-13T13:24:02;4.10;;;1.80;;
77012;SDS011;67260;53.130;17.982;2023-07-13T13:26:31;5.50;;;2.00;;
77012;SDS011;67260;53.130;17.982;2023-07-13T13:28:59;3.50;;;1.60;;
77012;SDS011;67260;53.130;17.982;2023-07-13T13:31:25;4.80;;;1.90;;
77012;SDS011;67260;53.130;17.982;2023-07-13T13:33:54;3.90;;;2.00;;
77012;SDS011;67260;53.130;17.982;2023-07-13T13:36:22;4.60;;;2.00;;
77012;SDS011;67260;53.130;17.982;2023-07-13T13:38:49;5.30;;;2.20;;
77012;SDS011;67260;53.130;17.982;2023-07-13T13:41:16;7.30;;;2.80;;
77012;SDS011;67260;53.130;17.982;2023-07-13T13:43:43;8.30;;;2.70;;
77012;SDS011;67260;53.130;17.982;2023-07-13T13:46:14;6.70;;;2.60;;
77012;SDS011;67260;53.130;17.982;2023-07-13T13:48:46;6.70;;;2.30;;
77012;SDS011;67260;53.130;17.982;2023-07-13T13:51:22;5.40;;;1.90;;
77012;SDS011;67260;53.130;17.982;2023-07-13T13:53:56;6.30;;;2.50;;
77012;SDS011;67260;53.130;17.982;2023-07-13T13:56:25;5.40;;;2.20;;
77012;SDS011;67260;53.130;17.982;2023-07-13T13:58:52;4.50;;;2.10;;
77012;SDS011;67260;53.130;17.982;2023-07-13T14:01:30;4.80;;;2.00;;
77012;SDS011;67260;53.130;17.982;2023-07-13T14:04:19;5.10;;;2.10;;
77012;SDS011;67260;53.130;17.982;2023-07-13T14:06:59;5.80;;;2.20;;
77012;SDS011;67260;53.130;17.982;2023-07-13T14:09:31;5.30;;;2.20;;
77012;SDS011;67260;53.130;17.982;2023-07-13T14:11:57;5.00;;;2.00;;
77012;SDS011;67260;53.130;17.982;2023-07-13T14:14:25;4.90;;;1.90;;
77012;SDS011;67260;53.130;17.982;2023-07-13T14:17:03;5.70;;;2.10;;
77012;SDS011;67260;53.130;17.982;2023-07-13T14:19:30;5.50;;;2.00;;
77012;SDS011;67260;53.130;17.982;2023-07-13T14:21:58;3.30;;;2.00;;
77012;SDS011;67260;53.130;17.982;2023-07-13T14:24:24;3.50;;;1.40;;
77012;SDS011;67260;53.130;17.982;2023-07-13T14:26:50;3.90;;;1.40;;
77012;SDS011;67260;53.130;17.982;2023-07-13T14:29:18;4.90;;;1.60;;
77012;SDS011;67260;53.130;17.982;2023-07-13T14:31:45;4.90;;;1.50;;
77012;SDS011;67260;53.130;17.982;2023-07-13T14:34:12;4.20;;;1.70;;
77012;SDS011;67260;53.130;17.982;2023-07-13T14:36:44;4.70;;;1.60;;
77012;SDS011;67260;53.130;17.982;2023-07-13T14:39:14;4.20;;;1.30;;
77012;SDS011;67260;53.130;17.982;2023-07-13T14:41:43;3.10;;;1.40;;
77012;SDS011;67260;53.130;17.982;2023-07-13T14:44:16;5.20;;;1.40;;
77012;SDS011;67260;53.130;17.982;2023-07-13T14:46:49;5.40;;;1.40;;
77012;SDS011;67260;53.130;17.982;2023-07-13T14:49:21;3.30;;;1.30;;
77012;SDS011;67260;53.130;17.982;2023-07-13T14:51:57;4.70;;;1.30;;
77012;SDS011;67260;53.130;17.982;2023-07-13T14:54:25;3.30;;;1.20;;
77012;SDS011;67260;53.130;17.982;2023-07-13T14:56:51;4.10;;;1.60;;
77012;SDS011;67260;53.130;17.982;2023-07-13T14:59:18;4.80;;;1.40;;
77012;SDS011;67260;53.130;17.982;2023-07-13T15:01:45;5.50;;;1.30;;
77012;SDS011;67260;53.130;17.982;2023-07-13T15:04:13;4.40;;;1.50;;
77012;SDS011;67260;53.130;17.982;2023-07-13T15:06:59;4.10;;;1.40;;
77012;SDS011;67260;53.130;17.982;2023-07-13T15:09:28;3.50;;;1.10;;
77012;SDS011;67260;53.130;17.982;2023-07-13T15:11:55;6.40;;;1.40;;
77012;SDS011;67260;53.130;17.982;2023-07-13T15:14:22;2.70;;;1.40;;
77012;SDS011;67260;53.130;17.982;2023-07-13T15:16:50;4.30;;;1.50;;
77012;SDS011;67260;53.130;17.982;2023-07-13T15:19:17;3.70;;;1.40;;
77012;SDS011;67260;53.130;17.982;2023-07-13T15:21:45;2.80;;;1.20;;
77012;SDS011;67260;53.130;17.982;2023-07-13T15:24:13;5.70;;;1.70;;
77012;SDS011;67260;53.130;17.982;2023-07-13T15:26:39;4.40;;;1.40;;
77012;SDS011;67260;53.130;17.982;2023-07-13T15:29:06;7.40;;;1.50;;
77012;SDS011;67260;53.130;17.982;2023-07-13T15:31:34;4.30;;;1.50;;
77012;SDS011;67260;53.130;17.982;2023-07-13T15:34:03;5.40;;;1.40;;
77012;SDS011;67260;53.130;17.982;2023-07-13T15:36:37;4.10;;;1.30;;
77012;SDS011;67260;53.130;17.982;2023-07-13T15:39:04;3.40;;;1.30;;